Latest Weather Observations for Richmond

IDN60901

Issued at 12:01 pm EDT Wednesday 1 April 2015 (issued every 10 minutes, with the page automatically refreshed every 10 minutes)

About weather observations | Map of Sydney area stations | Latest observations for Sydney area | Other Formats
Station Details ID: 067105 Name: RICHMOND RAAF Lat: -33.60 Lon: 150.78 Height: 19.0 m
Data from the previous 72 hours. | See also: Recent months at Richmond
Date/Time
EDT
Tmp

°C
App
Tmp
°C
Dew
Point
°C
Rel
Hum
%
Delta-T

°C
Wind Press
QNH
hPa
Press
MSL
hPa
Rain
since
9 am
mm
Dir
 
Spd
km/h
Gust
km/h
Spd
kts
Gust
kts
01/11:59am 22.1 24.2 18.1 78 2.5 N 4 11 2 6 1024.2 1024.2 0.0
01/11:37am 21.0 21.8 17.4 80 2.2 NE 9 13 5 7 1024.6 1024.6 0.0
01/11:30am 21.1 22.0 17.5 80 2.2 NE 9 13 5 7 1024.6 1024.6 0.0
01/11:15am 21.2 22.7 18.0 82 2.0 NE 7 13 4 7 1024.7 1024.7 0.0
01/11:00am 20.2 21.5 17.6 85 1.6 NE 7 13 4 7 1025.0 1025.0 0.0
01/10:49am 20.5 22.6 18.1 86 1.5 ENE 4 7 2 4 1025.0 1025.0 0.0
01/10:44am 20.3 22.0 18.1 87 1.4 NE 6 7 3 4 1024.9 1024.9 0.0
01/10:30am 20.4 22.1 18.5 89 1.2 NE 7 9 4 5 1025.0 1025.0 0.0
01/10:00am 19.3 21.9 17.6 90 1.0 CALM 0 0 0 0 1025.1 1025.1 0.0
01/09:52am 19.0 21.3 17.8 93 0.7 NE 2 7 1 4 1025.2 1025.2 0.0
01/09:30am 18.7 20.2 17.7 94 0.6 NNE 6 7 3 4 1025.4 1025.4 0.0
01/09:02am 18.3 19.8 17.7 96 0.4 ESE 6 7 3 4 1025.2 1025.2 0.0
01/09:00am 18.1 19.6 17.5 96 0.4 ESE 6 7 3 4 1025.2 1025.2 17.0
01/08:30am 17.8 19.9 17.3 97 0.3 WSW 2 6 1 3 1025.0 1025.0 17.0
01/08:25am 17.7 20.3 17.4 98 0.2 CALM 0 0 0 0 1024.9 1024.9 17.0
01/08:00am 17.5 20.0 17.3 99 0.1 CALM 0 0 0 0 1024.8 1024.8 17.0
01/07:52am 17.4 19.5 17.2 99 0.1 WSW 2 6 1 3 1024.7 1024.7 17.0
01/07:30am 17.3 18.6 17.1 99 0.1 W 6 9 3 5 1024.6 1024.6 17.0
01/07:29am 17.2 18.5 17.0 99 0.1 W 6 9 3 5 1024.6 1024.6 17.0
01/07:18am 17.1 19.5 16.9 99 0.1 CALM 0 4 0 2 1024.5 1024.5 17.0
01/07:00am 17.1 19.5 16.9 99 0.1 CALM 0 0 0 0 1024.5 1024.5 17.0
01/06:53am 17.1 19.5 16.9 99 0.1 CALM 0 0 0 0 1024.4 1024.4 17.0
01/06:30am 16.6 18.8 16.4 99 0.1 CALM 0 0 0 0 1024.3 1024.3 17.0
01/06:27am 16.5 18.6 16.3 99 0.1 CALM 0 0 0 0 1024.3 1024.3 17.0
01/06:22am 16.7 18.9 16.5 99 0.1 CALM 0 0 0 0 1024.2 1024.2 17.0
01/06:13am 16.0 17.5 15.7 98 0.2 WSW 2 6 1 3 1024.1 1024.1 17.0
01/05:30am 16.7 17.8 16.5 99 0.1 W 6 7 3 4 1024.0 1024.0 17.0
01/05:26am 16.8 17.9 16.5 98 0.2 WSW 6 7 3 4 1024.0 1024.0 17.0
01/05:12am 16.9 18.8 16.6 98 0.2 WSW 2 7 1 4 1023.9 1023.9 17.0
01/05:00am 17.2 19.6 16.9 98 0.2 CALM 0 0 0 0 1023.9 1023.9 17.0
01/04:52am 17.3 19.7 17.0 98 0.2 CALM 0 0 0 0 1023.9 1023.9 17.0
01/04:40am 17.3 19.7 17.1 99 0.1 CALM 0 0 0 0 1023.9 1023.9 17.0
01/04:30am 17.3 19.7 17.1 99 0.1 CALM 0 0 0 0 1023.9 1023.9 17.0
01/04:00am 17.4 19.9 17.2 99 0.1 CALM 0 0 0 0 1024.1 1024.1 17.0
01/03:49am 17.3 19.7 17.1 99 0.1 CALM 0 0 0 0 1024.0 1024.0 17.0
01/03:36am 17.1 19.5 16.9 99 0.1 CALM 0 0 0 0 1024.2 1024.2 17.0
01/03:30am 17.0 19.3 16.7 98 0.2 CALM 0 0 0 0 1024.2 1024.2 17.0
01/03:00am 16.7 18.9 16.4 98 0.2 CALM 0 0 0 0 1024.4 1024.4 17.0
01/02:59am 16.7 18.9 16.4 98 0.2 CALM 0 0 0 0 1024.4 1024.4 17.0
01/02:46am 17.0 19.3 16.7 98 0.2 CALM 0 0 0 0 1024.5 1024.5 17.0
01/02:30am 17.1 19.4 16.8 98 0.2 CALM 0 0 0 0 1024.8 1024.8 17.0
01/02:21am 17.3 19.7 17.0 98 0.2 CALM 0 0 0 0 1024.7 1024.7 17.0
01/02:00am 17.6 20.1 17.3 98 0.2 CALM 0 0 0 0 1024.9 1024.9 17.0
01/01:30am 17.4 19.8 17.1 98 0.2 CALM 0 0 0 0 1025.3 1025.3 16.8
01/01:00am 17.3 19.7 17.0 98 0.2 CALM 0 6 0 3 1025.4 1025.4 16.8
01/12:30am 17.2 19.2 16.9 98 0.2 W 2 6 1 3 1025.8 1025.8 16.8
 
Date/Time
EDT
Tmp

°C
App
Tmp
°C
Dew
Point
°C
Rel
Hum
%
Delta-T

°C
Wind Press
QNH
hPa
Press
MSL
hPa
Rain
since
9 am
mm
Dir
 
Spd
km/h
Gust
km/h
Spd
kts
Gust
kts
31/11:30pm 17.6 19.4 17.3 98 0.2 W 4 6 2 3 1025.8 1025.8 16.8
31/11:00pm 17.6 18.8 17.4 99 0.1 W 7 9 4 5 1026.1 1026.1 16.8
31/10:30pm 17.7 19.1 17.4 98 0.2 NW 6 9 3 5 1026.1 1026.1 16.8
31/10:00pm 17.6 18.8 17.3 98 0.2 SW 7 11 4 6 1026.3 1026.3 16.8
31/09:30pm 17.5 18.2 17.0 97 0.3 SW 9 13 5 7 1026.1 1026.1 16.8
31/09:00pm 17.5 18.7 17.3 99 0.1 SW 7 9 4 5 1026.1 1026.1 16.8
31/08:30pm 16.7 18.6 15.7 94 0.6 CALM 0 0 0 0 1025.9 1025.9 16.8
31/08:00pm 17.7 20.1 17.1 96 0.4 CALM 0 0 0 0 1025.6 1025.6 16.8
31/07:30pm 17.8 20.1 16.8 94 0.6 CALM 0 0 0 0 1025.2 1025.2 16.8
31/07:00pm 18.1 19.1 16.9 93 0.7 SW 7 11 4 6 1024.9 1024.9 16.8
31/06:30pm 18.8 19.6 17.3 91 0.9 WSW 9 11 5 6 1024.9 1024.9 16.8
31/05:30pm 19.3 19.4 17.4 89 1.2 S 13 20 7 11 1024.6 1024.6 16.8
31/05:00pm 19.9 21.4 18.9 94 0.6 SE 9 13 5 7 1024.6 1024.6 16.8
31/04:53pm 19.8 21.3 18.8 94 0.6 SSE 9 15 5 8 1024.5 1024.5 16.8
31/04:30pm 19.6 18.9 16.4 82 1.9 E 15 28 8 15 1024.6 1024.6 13.0
31/04:25pm 20.3 19.7 15.7 75 2.7 E 13 28 7 15 1024.4 1024.4 9.0
31/04:00pm 23.6 24.4 17.3 67 3.9 WSW 9 13 5 7 1024.2 1024.2 6.6
31/03:30pm 22.5 22.3 16.8 70 3.5 WSW 13 17 7 9 1024.6 1024.6 6.6
31/03:00pm 22.6 23.8 16.9 70 3.5 WNW 6 13 3 7 1024.7 1024.7 6.6
31/02:30pm 22.7 24.1 17.4 72 3.3 NW 6 9 3 5 1025.0 1025.0 6.6
31/02:00pm 21.4 24.2 18.0 81 2.1 CALM 0 0 0 0 1025.4 1025.4 6.6
31/01:30pm 20.0 21.8 17.4 85 1.6 SW 4 7 2 4 1026.0 1026.0 6.6
31/01:14pm 19.5 22.0 17.3 87 1.3 CALM 0 0 0 0 1026.2 1026.2 6.6
31/01:00pm 19.0 20.2 17.3 90 1.0 E 7 15 4 8 1026.4 1026.4 6.6
31/12:54pm 18.9 19.8 17.6 92 0.8 ESE 9 15 5 8 1026.6 1026.6 6.0
31/12:33pm 19.2 20.7 17.5 90 1.0 ESE 6 9 3 5 1026.6 1026.6 4.4
31/12:30pm 19.2 21.3 18.0 93 0.7 E 4 6 2 3 1026.6 1026.6 4.4
31/12:19pm 18.7 20.0 17.5 93 0.7 E 7 11 4 6 1026.8 1026.8 4.4
31/12:09pm 18.7 19.5 17.2 91 0.9 E 9 13 5 7 1026.9 1026.9 2.6
31/12:07pm 18.7 19.5 17.2 91 0.9 E 9 13 5 7 1026.9 1026.9 2.4
31/12:00pm 18.9 19.7 17.4 91 0.9 E 9 13 5 7 1026.9 1026.9 1.4
31/11:48am 18.6 18.4 16.6 88 1.2 ENE 13 20 7 11 1027.0 1027.0 1.2
31/11:43am 19.8 19.9 16.6 82 1.9 ESE 11 13 6 7 1027.0 1027.0 0.0
31/11:30am 20.3 20.8 17.5 84 1.7 S 11 15 6 8 1027.0 1027.0 0.0
31/11:19am 20.4 21.0 17.6 84 1.7 S 11 15 6 8 1027.0 1027.0 0.0
31/11:00am 20.5 21.6 17.9 85 1.6 S 9 11 5 6 1027.1 1027.1 0.0
31/10:30am 20.0 21.0 17.8 87 1.4 SSW 9 13 5 7 1027.2 1027.2 0.0
31/10:00am 19.2 20.0 17.3 89 1.2 SSW 9 13 5 7 1027.2 1027.2 0.0
31/09:30am 18.9 20.4 17.6 92 0.8 S 6 7 3 4 1027.0 1027.0 0.0
31/09:00am 18.4 19.9 17.6 95 0.5 WSW 6 7 3 4 1026.5 1026.5 2.8
31/08:30am 17.9 20.3 17.1 95 0.5 CALM 0 6 0 3 1026.3 1026.3 2.8
31/08:00am 17.7 19.2 17.5 99 0.1 WNW 6 7 3 4 1025.9 1025.9 2.8
31/07:55am 17.5 18.7 17.3 99 0.1 W 7 7 4 4 1025.8 1025.8 2.8
31/07:52am 17.4 18.5 17.2 99 0.1 WNW 7 7 4 4 1025.8 1025.8 2.8
31/07:30am 16.8 18.3 16.6 99 0.1 NNW 4 7 2 4 1025.5 1025.5 2.8
31/07:05am 16.9 19.1 16.6 98 0.2 CALM 0 0 0 0 1025.3 1025.3 2.8
31/07:00am 17.0 19.3 16.7 98 0.2 CALM 0 0 0 0 1025.3 1025.3 2.8
31/06:30am 17.1 19.4 16.8 98 0.2 CALM 0 6 0 3 1024.9 1024.9 2.8
31/06:00am 17.2 18.3 17.0 99 0.1 WSW 7 11 4 6 1024.5 1024.5 2.8
31/05:30am 17.0 19.3 16.7 98 0.2 CALM 0 0 0 0 1024.6 1024.6 2.8
31/05:00am 17.1 19.4 16.8 98 0.2 CALM 0 0 0 0 1024.5 1024.5 2.8
31/04:30am 17.2 19.6 16.9 98 0.2 CALM 0 6 0 3 1024.4 1024.4 2.8
31/04:00am 17.0 17.9 16.7 98 0.2 NE 7 11 4 6 1024.5 1024.5 2.8
31/03:30am 17.1 18.0 16.6 97 0.3 E 7 46 4 25 1024.7 1024.7 2.8
31/03:00am 17.2 17.8 16.7 97 0.3 S 9 11 5 6 1024.6 1024.6 2.8
31/02:30am 17.3 17.8 16.5 95 0.5 SSW 9 13 5 7 1025.0 1025.0 2.8
31/02:00am 17.5 17.0 16.9 96 0.4 WSW 15 17 8 9 1025.2 1025.2 2.4
31/01:30am 17.5 17.8 17.0 97 0.3 WSW 11 15 6 8 1025.5 1025.5 2.2
31/01:00am 17.7 18.0 17.1 96 0.4 WSW 11 13 6 7 1025.6 1025.6 1.8
31/12:30am 18.0 18.8 17.2 95 0.5 WSW 9 15 5 8 1025.7 1025.7 1.2
31/12:00am 18.3 17.7 16.6 90 1.0 N 15 24 8 13 1025.4 1025.4 1.0
 
Date/Time
EDT
Tmp

°C
App
Tmp
°C
Dew
Point
°C
Rel
Hum
%
Delta-T

°C
Wind Press
QNH
hPa
Press
MSL
hPa
Rain
since
9 am
mm
Dir
 
Spd
km/h
Gust
km/h
Spd
kts
Gust
kts
30/11:30pm 19.0 20.7 17.1 89 1.2 SSW 4 17 2 9 1025.4 1025.4 0.6
30/11:00pm 19.2 20.3 17.2 88 1.2 SSW 7 9 4 5 1025.1 1025.1 0.6
30/10:30pm 19.5 20.4 17.6 89 1.2 SW 9 11 5 6 1025.1 1025.1 0.6
30/10:00pm 19.4 20.9 18.1 92 0.8 SSW 7 11 4 6 1025.1 1025.1 0.6
30/09:30pm 19.6 21.4 18.3 92 0.8 SW 6 7 3 4 1025.1 1025.1 0.6
30/09:00pm 19.6 21.2 18.3 92 0.8 WSW 7 9 4 5 1025.0 1025.0 0.6
30/08:30pm 19.7 21.5 18.4 92 0.8 SSW 6 7 3 4 1024.9 1024.9 0.4
30/08:00pm 19.8 21.6 18.3 91 0.9 S 6 7 3 4 1024.6 1024.6 0.4
30/07:30pm 20.1 22.4 17.7 86 1.5 N 2 6 1 3 1024.1 1024.1 0.4
30/07:00pm 20.5 21.2 17.1 81 2.1 NE 9 13 5 7 1023.7 1023.7 0.2
30/06:30pm 21.7 22.1 16.2 71 3.3 NE 9 13 5 7 1023.6 1023.6 0.2
30/06:00pm 22.1 21.7 16.1 69 3.6 E 13 17 7 9 1023.0 1023.0 0.2
30/05:30pm 22.7 22.8 16.5 68 3.8 ENE 11 15 6 8 1022.7 1022.7 0.2
30/05:00pm 23.3 23.1 16.6 66 4.1 ENE 13 19 7 10 1022.3 1022.3 0.2
30/04:30pm 23.4 23.0 16.2 64 4.4 E 13 19 7 10 1022.0 1022.0 0.2
30/04:00pm 23.6 21.8 15.6 61 4.8 E 19 24 10 13 1022.0 1022.0 0.2
30/03:30pm 24.2 22.5 15.7 59 5.1 ENE 19 26 10 14 1022.0 1022.0 0.2
30/03:00pm 24.2 22.5 15.7 59 5.1 ENE 19 24 10 13 1022.1 1022.1 0.2
30/02:30pm 24.6 25.2 15.2 55 5.6 ESE 6 13 3 7 1022.2 1022.2 0.2
30/02:00pm 24.5 24.8 14.9 55 5.7 SE 7 19 4 10 1022.5 1022.5 0.2
30/01:30pm 24.0 23.2 15.0 57 5.4 SSE 13 17 7 9 1022.8 1022.8 0.2
30/01:00pm 23.4 23.8 16.4 64 4.3 SSE 9 15 5 8 1023.2 1023.2 0.2
30/12:30pm 23.5 23.2 17.3 68 3.8 SE 15 20 8 11 1023.2 1023.2 0.2
30/12:00pm 23.4 23.9 18.3 73 3.2 SE 13 20 7 11 1023.8 1023.8 0.2
30/11:30am 22.1 24.2 19.3 84 1.8 S 7 13 4 7 1024.0 1024.0 0.2
30/11:00am 20.6 22.3 19.4 93 0.8 WSW 9 13 5 7 1024.1 1024.1 0.0
30/10:30am 18.7 19.3 15.4 81 1.9 W 6 11 3 6 1024.1 1024.1 0.0
30/10:00am 20.2 21.7 16.6 80 2.2 NNW 4 7 2 4 1024.4 1024.4 0.0
30/09:30am 19.0 21.1 17.3 90 1.0 NW 2 6 1 3 1024.4 1024.4 0.0
30/09:00am 17.9 18.9 16.8 93 0.7 NNE 7 9 4 5 1024.5 1024.5 0.0
30/08:30am 18.0 18.9 16.7 92 0.8 E 7 9 4 5 1024.2 1024.2 0.0
30/08:00am 17.4 19.1 16.3 93 0.7 NE 2 9 1 5 1024.1 1024.1 0.0
30/07:30am 17.3 18.5 16.0 92 0.8 ENE 4 11 2 6 1023.7 1023.7 0.0
30/07:00am 17.3 18.2 16.0 92 0.8 NE 6 9 3 5 1023.4 1023.4 0.0
30/06:30am 17.2 19.1 15.7 91 0.9 CALM 0 0 0 0 1023.2 1023.2 0.0
30/06:00am 17.0 18.8 15.5 91 0.9 CALM 0 0 0 0 1022.9 1022.9 0.0
30/05:30am 17.3 18.8 15.6 90 1.0 NW 2 6 1 3 1022.4 1022.4 0.0
30/05:00am 17.1 17.9 15.8 92 0.8 NW 6 7 3 4 1022.1 1022.1 0.0
30/04:30am 17.1 18.0 16.0 93 0.6 NNW 6 7 3 4 1022.1 1022.1 0.0
30/04:00am 17.6 18.3 15.6 88 1.2 SSW 6 7 3 4 1022.0 1022.0 0.0
30/03:30am 17.8 18.6 15.8 88 1.2 SSW 6 7 3 4 1022.0 1022.0 0.0
30/03:00am 17.6 18.4 15.9 90 1.0 WSW 6 9 3 5 1022.3 1022.3 0.0
30/02:30am 17.8 18.5 16.0 89 1.1 SW 7 9 4 5 1022.3 1022.3 0.0
30/02:00am 17.6 18.2 15.9 90 1.0 W 7 9 4 5 1022.6 1022.6 0.0
30/01:30am 17.5 18.4 16.0 91 0.9 SW 6 7 3 4 1022.5 1022.5 0.0
30/01:00am 17.8 18.5 16.0 89 1.1 SSW 7 9 4 5 1022.7 1022.7 0.0
30/12:30am 17.8 18.5 16.1 90 1.0 S 7 9 4 5 1022.7 1022.7 0.0
30/12:00am 17.8 18.7 16.0 89 1.1 WNW 6 7 3 4 1022.9 1022.9 0.0
 
Date/Time
EDT
Tmp

°C
App
Tmp
°C
Dew
Point
°C
Rel
Hum
%
Delta-T

°C
Wind Press
QNH
hPa
Press
MSL
hPa
Rain
since
9 am
mm
Dir
 
Spd
km/h
Gust
km/h
Spd
kts
Gust
kts
29/11:30pm 18.3 20.0 16.3 88 1.2 SW 2 7 1 4 1023.0 1023.0 0.0
29/11:00pm 17.4 17.9 15.6 89 1.1 WSW 7 7 4 4 1023.2 1023.2 0.0
29/10:30pm 18.1 19.9 15.5 85 1.5 CALM 0 0 0 0 1023.2 1023.2 0.0
29/10:00pm 18.7 20.7 15.9 84 1.7 CALM 0 0 0 0 1022.9 1022.9 0.0
29/09:30pm 20.2 20.5 16.0 77 2.5 SE 9 11 5 6 1022.5 1022.5 0.0
29/09:00pm 20.1 20.7 15.9 77 2.5 E 7 9 4 5 1022.1 1022.1 0.0
29/08:30pm 20.1 20.7 15.7 76 2.6 NE 7 9 4 5 1021.7 1021.7 0.0
29/08:00pm 20.9 21.6 16.1 74 2.9 ENE 7 13 4 7 1021.5 1021.5 0.0
29/07:30pm 21.5 21.9 16.2 72 3.2 ENE 9 13 5 7 1021.1 1021.0 0.0
29/07:00pm 22.2 21.4 16.0 68 3.7 ENE 15 22 8 12 1020.5 1020.4 0.0
29/06:30pm 23.3 22.5 16.1 64 4.4 ENE 15 20 8 11 1020.2 1020.1 0.0
29/06:00pm 24.1 23.0 15.3 58 5.3 ENE 15 22 8 12 1020.1 1020.0 0.0
29/05:30pm 25.7 22.7 9.1 35 9.0 E 15 19 8 10 1019.7 1019.6 0.0
29/05:00pm 26.0 22.7 9.4 35 9.1 E 17 22 9 12 1019.6 1019.5 0.0
29/04:30pm 26.3 23.6 10.5 37 8.8 E 15 20 8 11 1019.9 1019.8 0.0
29/04:00pm 27.1 25.4 12.3 39 8.6 ENE 13 20 7 11 1020.0 1019.9 0.0
29/03:30pm 26.5 24.5 11.4 39 8.6 ENE 13 20 7 11 1020.1 1020.0 0.0
29/03:00pm 26.4 25.7 11.3 39 8.6 NNE 6 17 3 9 1020.2 1020.1 0.0
29/02:30pm 26.3 24.2 11.2 38 8.6 ENE 13 19 7 10 1020.5 1020.4 0.0
29/02:00pm 25.9 24.7 12.7 44 7.6 NE 11 19 6 10 1020.9 1020.8 0.0
29/01:30pm 25.3 24.4 13.8 49 6.8 ENE 11 20 6 11 1021.4 1021.4 0.0
29/01:00pm 24.4 22.7 13.6 51 6.3 N 15 22 8 12 1022.2 1022.2 0.0
29/12:30pm 24.0 22.8 14.1 54 5.8 NNE 13 17 7 9 1022.4 1022.4 0.0

Latest Capital City Observations: Canberra | Sydney | Melbourne | Brisbane | Adelaide | Perth | Hobart | Darwin

Other Formats:

Comma delimited format used in spreadsheet applications
http://www.bom.gov.au/fwo/IDN60901/IDN60901.95753.axf

JavaScript Object Notation format (JSON) in row-major order
http://www.bom.gov.au/fwo/IDN60901/IDN60901.95753.json